Dallas/Fort Worth (DFW/KDFW)

Information

Location
Dallas/Fort Worth, TX
Local Time
12:37 / 12:37 pm
GMT Time
18:37 / 6:37 pm
Gates
Unassigned
No FAA reported delays
METAR KDFW 191829Z 14014KT 5SM HZ SCT015 BKN034 OVC047 23/19 A2988 RMK AO2 T02330189
TAF KDFW 191740Z 1918/2024 14011KT P6SM VCSH BKN015 TEMPO 1918/1919 3SM BR OVC009 FM192100 15011KT P6SM VCSH BKN025 FM200000 15010KT P6SM BKN030 FM200600 17010KT 4SM TSRA BR BKN010 OVC015CB FM201000 20007KT 4SM SHRA BR OVC015 FM201500 16009KT P6SM BKN020
  • No charts available